createdAt,value
2017-08-31T00:02:14.696Z,10.90
2017-08-31T00:04:42.201Z,10.50
2017-08-31T00:07:09.746Z,8.63
2017-08-31T00:09:37.241Z,8.50
2017-08-31T00:12:04.756Z,9.17
2017-08-31T00:14:32.300Z,7.40
2017-08-31T00:16:59.820Z,9.50
2017-08-31T00:19:27.344Z,8.53
2017-08-31T00:21:54.884Z,7.83
2017-08-31T00:24:22.393Z,8.47
2017-08-31T00:26:49.900Z,8.40
2017-08-31T00:29:17.439Z,8.83
2017-08-31T00:31:44.964Z,7.90
2017-08-31T00:34:12.483Z,8.13
2017-08-31T00:36:40.026Z,9.30
2017-08-31T00:39:07.524Z,9.37
2017-08-31T00:41:35.028Z,8.73
2017-08-31T00:44:02.741Z,9.30
2017-08-31T00:46:30.259Z,11.00
2017-08-31T00:48:57.785Z,10.83
2017-08-31T00:51:25.316Z,10.47
2017-08-31T00:53:52.832Z,10.90
2017-08-31T00:56:20.352Z,11.10
2017-08-31T00:58:47.889Z,14.73
2017-08-31T01:01:15.406Z,13.90
2017-08-31T01:03:42.934Z,12.20
2017-08-31T01:06:10.469Z,11.60
2017-08-31T01:08:37.969Z,12.77
2017-08-31T01:11:05.490Z,12.53
2017-08-31T01:13:33.020Z,11.90
2017-08-31T01:16:00.528Z,12.50
2017-08-31T01:18:28.035Z,8.70
2017-08-31T01:20:55.598Z,8.23
2017-08-31T01:23:23.105Z,7.67
2017-08-31T01:25:50.619Z,5.03
2017-08-31T01:28:18.139Z,4.70
2017-08-31T01:30:45.660Z,4.20
2017-08-31T01:33:13.183Z,4.33
2017-08-31T01:35:40.717Z,4.60
2017-08-31T01:38:08.224Z,4.50
2017-08-31T01:40:35.733Z,5.50
2017-08-31T01:43:03.311Z,4.53
2017-08-31T01:45:30.808Z,5.67
2017-08-31T01:47:58.327Z,5.70
2017-08-31T01:50:26.335Z,7.17
2017-08-31T01:52:53.861Z,5.83
2017-08-31T01:55:21.881Z,5.50
2017-08-31T01:57:49.424Z,5.50
2017-08-31T02:00:16.994Z,4.53
2017-08-31T02:02:45.427Z,5.80
2017-08-31T02:05:14.309Z,5.47
2017-08-31T02:07:42.099Z,6.13
2017-08-31T02:10:09.653Z,5.87
2017-08-31T02:12:37.177Z,6.00
2017-08-31T02:15:04.692Z,5.87
2017-08-31T02:17:32.213Z,7.13
2017-08-31T02:19:59.756Z,6.40
2017-08-31T02:22:27.280Z,7.70
2017-08-31T02:24:54.804Z,8.60
2017-08-31T02:27:22.330Z,8.93
2017-08-31T02:29:49.848Z,9.83
2017-08-31T02:32:17.384Z,10.13
2017-08-31T02:34:44.909Z,10.37
2017-08-31T02:37:12.428Z,11.73
2017-08-31T02:39:39.953Z,13.73
2017-08-31T02:42:07.486Z,14.27
2017-08-31T02:44:34.989Z,14.10
2017-08-31T02:47:02.509Z,12.20
2017-08-31T02:49:30.068Z,13.03
2017-08-31T02:51:57.577Z,13.80
2017-08-31T02:54:25.091Z,13.07
2017-08-31T02:56:52.641Z,14.93
2017-08-31T02:59:20.145Z,14.17
2017-08-31T03:01:47.668Z,16.03
2017-08-31T03:04:16.624Z,14.47
2017-08-31T03:06:44.184Z,17.20
2017-08-31T03:09:11.704Z,16.97
2017-08-31T03:11:39.265Z,18.50
2017-08-31T03:14:06.784Z,17.57
2017-08-31T03:16:34.308Z,16.30
2017-08-31T03:19:01.872Z,17.77
2017-08-31T03:21:29.443Z,18.43
2017-08-31T03:23:57.013Z,15.07
2017-08-31T03:26:24.537Z,15.90
2017-08-31T03:28:52.052Z,15.73
2017-08-31T03:31:19.563Z,18.90
2017-08-31T03:33:47.088Z,17.40
2017-08-31T03:36:14.590Z,15.20
2017-08-31T03:38:42.119Z,15.10
2017-08-31T03:41:09.647Z,13.20
2017-08-31T03:43:37.167Z,13.40
2017-08-31T03:46:04.688Z,13.27
2017-08-31T03:48:32.219Z,13.43
2017-08-31T03:50:59.742Z,11.93
2017-08-31T03:53:27.256Z,12.57
2017-08-31T03:55:54.815Z,11.70
2017-08-31T03:58:22.327Z,13.30
2017-08-31T04:00:49.899Z,13.57
2017-08-31T04:03:17.443Z,13.47
2017-08-31T04:05:44.960Z,13.00
2017-08-31T04:08:12.476Z,14.67
2017-08-31T04:10:40.095Z,12.50
2017-08-31T04:13:07.595Z,12.90
2017-08-31T04:15:35.101Z,12.83
2017-08-31T04:18:02.651Z,13.60
2017-08-31T04:20:30.158Z,13.57
2017-08-31T04:22:57.664Z,13.37
2017-08-31T04:25:25.193Z,13.03
2017-08-31T04:27:52.693Z,13.73
2017-08-31T04:30:20.303Z,12.10
2017-08-31T04:32:47.853Z,12.95
2017-08-31T04:35:15.411Z,11.77
2017-08-31T04:37:42.917Z,10.17
2017-08-31T04:40:10.439Z,14.13
2017-08-31T04:42:37.965Z,12.00
2017-08-31T04:45:06.248Z,11.37
2017-08-31T04:47:33.773Z,12.10
2017-08-31T04:50:01.331Z,12.10
2017-08-31T04:52:28.947Z,11.47
2017-08-31T04:54:56.455Z,12.93
2017-08-31T04:57:23.991Z,14.17
2017-08-31T04:59:51.493Z,16.80
2017-08-31T05:02:19.781Z,14.50
2017-08-31T05:04:48.096Z,17.83
2017-08-31T05:07:15.616Z,16.98
2017-08-31T05:09:43.182Z,14.03
2017-08-31T05:12:10.729Z,13.33
2017-08-31T05:14:39.010Z,13.73
2017-08-31T05:17:06.533Z,13.57
2017-08-31T05:19:34.112Z,11.57
2017-08-31T05:22:01.636Z,13.77
2017-08-31T05:24:29.159Z,10.87
2017-08-31T05:26:56.708Z,9.90
2017-08-31T05:29:24.207Z,11.50
2017-08-31T05:31:51.735Z,10.40
2017-08-31T05:34:19.257Z,10.17
2017-08-31T05:36:46.792Z,12.10
2017-08-31T05:39:14.301Z,9.87
2017-08-31T05:41:42.588Z,11.40
2017-08-31T05:44:10.113Z,9.83
2017-08-31T05:46:37.643Z,9.10
2017-08-31T05:49:05.199Z,8.70
2017-08-31T05:51:32.717Z,10.50
2017-08-31T05:54:00.252Z,10.43
2017-08-31T05:56:27.784Z,9.63
2017-08-31T05:58:55.308Z,10.50
2017-08-31T06:01:22.817Z,9.93
2017-08-31T06:03:50.356Z,9.80
2017-08-31T06:06:17.869Z,10.47
2017-08-31T06:08:46.156Z,11.90
2017-08-31T06:11:13.755Z,10.57
2017-08-31T06:13:41.265Z,11.43
2017-08-31T06:16:08.800Z,11.43
2017-08-31T06:18:36.358Z,11.17
2017-08-31T06:21:03.883Z,9.60
2017-08-31T06:23:31.401Z,10.43
2017-08-31T06:25:58.967Z,10.73
2017-08-31T06:28:26.561Z,9.10
2017-08-31T06:30:54.102Z,10.73
2017-08-31T06:33:21.626Z,9.90
2017-08-31T06:35:49.169Z,9.17
2017-08-31T06:38:16.699Z,8.83
2017-08-31T06:40:44.240Z,9.00
2017-08-31T06:43:11.752Z,8.80
2017-08-31T06:45:39.276Z,10.00
2017-08-31T06:48:06.808Z,9.80
2017-08-31T06:50:34.336Z,8.67
2017-08-31T06:53:01.853Z,9.17
2017-08-31T06:55:29.380Z,6.90
2017-08-31T06:57:56.970Z,8.80
2017-08-31T07:00:24.484Z,8.30
2017-08-31T07:02:52.035Z,8.70
2017-08-31T07:05:20.297Z,8.23
2017-08-31T07:07:47.813Z,8.10
2017-08-31T07:10:15.368Z,8.00
2017-08-31T07:12:42.882Z,7.40
2017-08-31T07:15:10.494Z,9.50
2017-08-31T07:17:38.116Z,8.00
2017-08-31T07:20:05.629Z,7.40
2017-08-31T07:22:33.133Z,7.20
2017-08-31T07:25:00.653Z,8.23
2017-08-31T07:27:28.145Z,8.00
2017-08-31T07:29:55.652Z,7.87
2017-08-31T07:32:23.212Z,7.60
2017-08-31T07:34:50.722Z,8.20
2017-08-31T07:37:18.239Z,6.70
2017-08-31T07:39:45.800Z,8.27
2017-08-31T07:42:13.326Z,7.73
2017-08-31T07:44:40.891Z,7.70
2017-08-31T07:47:08.450Z,8.20
2017-08-31T07:49:36.027Z,8.00
2017-08-31T07:52:03.547Z,8.27
2017-08-31T07:54:31.956Z,8.53
2017-08-31T07:56:59.476Z,8.50
2017-08-31T07:59:26.998Z,7.70
2017-08-31T08:01:54.625Z,7.80
2017-08-31T08:04:22.141Z,8.33
2017-08-31T08:06:49.645Z,8.60
2017-08-31T08:09:17.199Z,9.00
2017-08-31T08:11:44.740Z,10.60
2017-08-31T08:14:12.240Z,11.60
2017-08-31T08:16:39.788Z,10.03
2017-08-31T08:19:07.310Z,10.10
2017-08-31T08:21:34.824Z,7.60
2017-08-31T08:24:02.371Z,11.30
2017-08-31T08:26:29.903Z,11.03
2017-08-31T08:28:57.432Z,11.03
2017-08-31T08:31:25.003Z,10.57
2017-08-31T08:33:52.529Z,9.10
2017-08-31T08:36:20.032Z,10.97
2017-08-31T08:38:47.572Z,10.57
2017-08-31T08:41:15.091Z,13.20
2017-08-31T08:43:42.601Z,12.80
2017-08-31T08:46:10.118Z,9.50
2017-08-31T08:48:37.649Z,9.90
2017-08-31T08:51:05.171Z,10.80
2017-08-31T08:53:32.697Z,9.43
2017-08-31T08:56:00.211Z,9.43
2017-08-31T08:58:27.725Z,10.73
2017-08-31T09:00:55.268Z,24.53
2017-08-31T09:03:22.760Z,11.87
2017-08-31T09:05:50.282Z,6.63
2017-08-31T09:08:17.800Z,7.30
2017-08-31T09:10:45.296Z,6.73
2017-08-31T09:13:12.794Z,7.20
2017-08-31T09:15:40.386Z,9.20
2017-08-31T09:18:07.908Z,6.40
2017-08-31T09:20:35.416Z,6.77
2017-08-31T09:23:02.941Z,9.47
2017-08-31T09:25:30.452Z,6.93
2017-08-31T09:27:57.966Z,5.67
2017-08-31T09:30:25.512Z,6.40
2017-08-31T09:32:53.005Z,5.67
2017-08-31T09:35:20.524Z,6.47
2017-08-31T09:37:48.083Z,7.27
2017-08-31T09:40:15.597Z,24.33
2017-08-31T09:42:43.135Z,7.30
2017-08-31T09:45:10.659Z,6.27
2017-08-31T09:47:38.184Z,5.43
2017-08-31T09:50:05.677Z,5.20
2017-08-31T09:52:33.516Z,6.03
2017-08-31T09:55:01.032Z,5.20
2017-08-31T09:57:28.555Z,5.40
2017-08-31T09:59:56.155Z,5.10
2017-08-31T10:02:23.676Z,4.47
2017-08-31T10:04:51.203Z,4.63
2017-08-31T10:07:18.740Z,4.77
2017-08-31T10:09:46.235Z,3.97
2017-08-31T10:12:14.065Z,5.13
2017-08-31T10:14:41.619Z,4.27
2017-08-31T10:17:09.176Z,5.77
2017-08-31T10:19:36.698Z,4.87
2017-08-31T10:22:04.379Z,5.10
2017-08-31T10:24:32.493Z,4.80
2017-08-31T10:27:00.774Z,4.00
2017-08-31T10:29:28.283Z,4.60
2017-08-31T10:31:55.812Z,4.47
2017-08-31T10:34:23.321Z,4.33
2017-08-31T10:36:50.809Z,5.57
2017-08-31T10:39:18.342Z,5.50
2017-08-31T10:41:45.869Z,5.80
2017-08-31T10:44:13.385Z,4.70
2017-08-31T10:46:40.942Z,4.50
2017-08-31T10:49:08.443Z,4.87
2017-08-31T10:51:35.942Z,4.70
2017-08-31T10:54:03.510Z,5.10
2017-08-31T10:56:31.024Z,6.03
2017-08-31T10:58:58.517Z,4.63
2017-08-31T11:01:26.067Z,10.47
2017-08-31T11:03:54.360Z,6.27
2017-08-31T11:06:21.979Z,5.43
2017-08-31T11:08:49.540Z,5.60
2017-08-31T11:11:17.054Z,5.67
2017-08-31T11:13:44.832Z,6.33
2017-08-31T11:16:12.410Z,5.70
2017-08-31T11:18:41.649Z,6.73
2017-08-31T11:21:09.144Z,6.90
2017-08-31T11:23:36.665Z,6.50
2017-08-31T11:26:04.156Z,6.27
2017-08-31T11:28:31.754Z,7.17
2017-08-31T11:30:59.302Z,7.53
2017-08-31T11:33:27.609Z,6.50
2017-08-31T11:35:55.212Z,6.63
2017-08-31T11:38:22.671Z,6.13
2017-08-31T11:40:50.179Z,6.20
2017-08-31T11:43:17.701Z,6.00
2017-08-31T11:45:45.230Z,12.60
2017-08-31T11:48:12.725Z,5.93
2017-08-31T11:50:40.240Z,6.20
2017-08-31T11:53:07.833Z,5.77
2017-08-31T11:55:35.356Z,5.70
2017-08-31T11:58:02.897Z,5.37
2017-08-31T12:00:30.412Z,5.30
2017-08-31T12:02:57.961Z,4.80
2017-08-31T12:05:25.512Z,5.70
2017-08-31T12:07:53.035Z,4.83
2017-08-31T12:10:20.536Z,4.30
2017-08-31T12:12:48.095Z,4.97
2017-08-31T12:15:15.609Z,5.40
2017-08-31T12:17:43.218Z,6.47
2017-08-31T12:20:10.743Z,5.40
2017-08-31T12:22:38.231Z,4.33
2017-08-31T12:25:05.728Z,4.40
2017-08-31T12:27:33.276Z,5.30
2017-08-31T12:30:00.799Z,4.73
2017-08-31T12:32:28.312Z,5.10
2017-08-31T12:34:55.822Z,6.10
2017-08-31T12:37:23.323Z,4.57
2017-08-31T12:39:50.847Z,5.10
2017-08-31T12:42:18.377Z,5.47
2017-08-31T12:44:45.880Z,6.67
2017-08-31T12:47:13.380Z,5.47
2017-08-31T12:49:41.680Z,4.90
2017-08-31T12:52:09.202Z,4.70
2017-08-31T12:54:36.736Z,4.73
2017-08-31T12:57:04.271Z,4.60
2017-08-31T12:59:32.552Z,5.73
2017-08-31T13:02:00.048Z,4.40
2017-08-31T13:04:27.600Z,3.80
2017-08-31T13:06:55.117Z,3.60
2017-08-31T13:09:22.616Z,3.77
2017-08-31T13:11:50.154Z,3.63
2017-08-31T13:14:17.679Z,4.00
2017-08-31T13:16:45.173Z,4.10
2017-08-31T13:19:12.704Z,2.40
2017-08-31T13:21:40.219Z,3.17
2017-08-31T13:24:07.713Z,4.30
2017-08-31T13:26:35.216Z,4.30
2017-08-31T13:29:02.723Z,3.30
2017-08-31T13:34:04.135Z,3.70
2017-08-31T13:36:31.653Z,2.73
2017-08-31T13:38:59.187Z,2.60
2017-08-31T13:41:26.743Z,2.73
2017-08-31T13:43:54.263Z,2.70
2017-08-31T13:46:21.793Z,3.20
2017-08-31T13:48:49.310Z,3.20
2017-08-31T13:51:16.817Z,3.60
2017-08-31T13:53:44.378Z,3.60
2017-08-31T13:56:11.900Z,3.07
2017-08-31T13:58:39.396Z,2.57
2017-08-31T14:01:07.649Z,2.80
2017-08-31T14:03:35.191Z,3.23
2017-08-31T14:06:02.744Z,2.90
2017-08-31T14:08:30.254Z,3.37
2017-08-31T14:10:57.760Z,2.97
2017-08-31T14:13:25.303Z,3.20
2017-08-31T14:15:52.829Z,2.80
2017-08-31T14:18:20.346Z,2.80
2017-08-31T14:20:47.868Z,2.63
2017-08-31T14:23:15.372Z,2.63
2017-08-31T14:25:42.889Z,2.50
2017-08-31T14:28:10.422Z,2.80
2017-08-31T14:30:37.935Z,3.20
2017-08-31T14:33:05.461Z,2.70
2017-08-31T14:35:33.011Z,2.07
2017-08-31T14:38:00.656Z,2.67
2017-08-31T14:40:28.183Z,2.27
2017-08-31T14:42:55.681Z,2.40
2017-08-31T14:45:23.230Z,2.30
2017-08-31T14:47:50.737Z,2.00
2017-08-31T14:50:18.249Z,3.10
2017-08-31T14:52:46.671Z,2.60
2017-08-31T14:55:14.189Z,2.27
2017-08-31T14:57:41.720Z,2.10
2017-08-31T15:00:09.268Z,2.10
2017-08-31T15:02:36.766Z,3.10
2017-08-31T15:05:04.279Z,2.30
2017-08-31T15:07:31.831Z,2.07
2017-08-31T15:09:59.334Z,2.13
2017-08-31T15:12:26.893Z,2.47
2017-08-31T15:14:54.413Z,2.13
2017-08-31T15:17:21.923Z,2.13
2017-08-31T15:19:49.482Z,1.93
2017-08-31T15:22:17.021Z,2.00
2017-08-31T15:24:45.363Z,1.90
2017-08-31T15:27:12.865Z,2.60
2017-08-31T15:29:40.387Z,2.60
2017-08-31T15:32:07.886Z,2.07
2017-08-31T15:34:35.416Z,2.90
2017-08-31T15:37:02.987Z,2.23
2017-08-31T15:39:30.491Z,2.50
2017-08-31T15:41:57.992Z,2.20
2017-08-31T15:44:25.544Z,2.17
2017-08-31T15:46:53.120Z,2.13
2017-08-31T15:49:20.614Z,2.23
2017-08-31T15:51:48.127Z,2.83
2017-08-31T15:54:15.696Z,3.20
2017-08-31T15:56:43.304Z,2.53
2017-08-31T15:59:11.805Z,3.10
2017-08-31T16:01:39.957Z,2.17
2017-08-31T16:04:08.208Z,2.73
2017-08-31T16:06:36.658Z,2.20
2017-08-31T16:09:04.217Z,2.37
2017-08-31T16:11:33.067Z,2.30
2017-08-31T16:14:01.502Z,2.27
2017-08-31T16:16:29.052Z,2.60
2017-08-31T16:18:57.217Z,5.83
2017-08-31T16:21:25.905Z,2.50
2017-08-31T16:23:53.840Z,2.30
2017-08-31T16:26:23.089Z,4.00
2017-08-31T16:28:51.512Z,3.50
2017-08-31T16:31:19.049Z,2.47
2017-08-31T16:33:46.606Z,2.50
2017-08-31T16:36:14.970Z,2.27
2017-08-31T16:38:42.456Z,1.90
2017-08-31T16:41:09.990Z,2.10
2017-08-31T16:43:38.463Z,2.43
2017-08-31T16:46:06.395Z,2.00
2017-08-31T16:48:33.943Z,2.40
2017-08-31T16:51:01.444Z,2.20
2017-08-31T16:53:29.301Z,4.63
2017-08-31T16:55:56.837Z,2.37
2017-08-31T16:58:24.415Z,2.97
2017-08-31T17:00:51.980Z,2.90
2017-08-31T17:03:19.561Z,3.37
2017-08-31T17:05:48.010Z,2.33
2017-08-31T17:08:16.541Z,2.77
2017-08-31T17:10:44.101Z,2.10
2017-08-31T17:13:11.897Z,2.57
2017-08-31T17:15:39.421Z,7.13
2017-08-31T17:18:06.981Z,3.03
2017-08-31T17:20:35.161Z,2.47
2017-08-31T17:23:02.681Z,3.30
2017-08-31T17:25:30.619Z,3.30
2017-08-31T17:27:58.198Z,3.17
2017-08-31T17:30:25.704Z,2.50
2017-08-31T17:32:53.377Z,3.40
2017-08-31T17:35:20.990Z,2.63
2017-08-31T17:37:48.496Z,3.37
2017-08-31T17:40:16.027Z,3.10
2017-08-31T17:42:43.566Z,2.83
2017-08-31T17:45:11.181Z,2.40
2017-08-31T17:47:38.748Z,2.60
2017-08-31T17:50:06.274Z,2.43
2017-08-31T17:52:34.306Z,2.90
2017-08-31T17:55:01.864Z,3.20
2017-08-31T17:57:29.384Z,2.60
2017-08-31T17:59:56.908Z,3.07
2017-08-31T18:02:24.471Z,2.80
2017-08-31T18:04:51.984Z,2.90
2017-08-31T18:07:19.534Z,3.07
2017-08-31T18:09:47.137Z,2.90
2017-08-31T18:12:14.672Z,2.90
2017-08-31T18:14:42.198Z,3.13
2017-08-31T18:17:09.776Z,2.80
2017-08-31T18:19:37.299Z,2.57
2017-08-31T18:22:04.843Z,2.57
2017-08-31T18:24:32.372Z,3.40
2017-08-31T18:26:59.885Z,2.77
2017-08-31T18:29:27.420Z,3.20
2017-08-31T18:31:54.944Z,3.03
2017-08-31T18:34:22.441Z,4.10
2017-08-31T18:36:50.005Z,3.50
2017-08-31T18:39:17.548Z,3.80
2017-08-31T18:41:45.062Z,3.83
2017-08-31T18:44:12.556Z,4.17
2017-08-31T18:46:40.098Z,3.20
2017-08-31T18:49:07.609Z,3.70
2017-08-31T18:51:35.393Z,3.53
2017-08-31T18:54:02.946Z,4.35
2017-08-31T18:56:30.459Z,3.13
2017-08-31T18:58:57.982Z,3.77
2017-08-31T19:01:25.513Z,3.20
2017-08-31T19:03:53.064Z,3.87
2017-08-31T19:06:20.641Z,4.30
2017-08-31T19:08:48.206Z,3.90
2017-08-31T19:11:16.367Z,4.73
2017-08-31T19:13:43.909Z,4.33
2017-08-31T19:16:12.256Z,4.90
2017-08-31T19:18:39.816Z,4.70
2017-08-31T19:21:07.320Z,5.27
2017-08-31T19:23:34.882Z,5.70
2017-08-31T19:26:03.227Z,5.40
2017-08-31T19:28:30.771Z,5.30
2017-08-31T19:30:58.277Z,5.50
2017-08-31T19:33:26.569Z,5.27
2017-08-31T19:35:54.173Z,4.97
2017-08-31T19:38:21.687Z,4.23
2017-08-31T19:40:49.201Z,4.90
2017-08-31T19:43:16.808Z,4.70
2017-08-31T19:45:44.307Z,4.50
2017-08-31T19:48:11.873Z,4.73
2017-08-31T19:50:39.425Z,5.30
2017-08-31T19:53:06.925Z,4.90
2017-08-31T19:55:35.189Z,4.47
2017-08-31T19:58:02.709Z,4.50
2017-08-31T20:00:30.230Z,4.70
2017-08-31T20:02:58.493Z,5.00
2017-08-31T20:05:26.064Z,4.70
2017-08-31T20:07:53.580Z,4.27
2017-08-31T20:10:21.073Z,5.13
2017-08-31T20:12:48.632Z,4.93
2017-08-31T20:15:16.225Z,6.75
2017-08-31T20:17:43.756Z,4.60
2017-08-31T20:20:11.271Z,5.50
2017-08-31T20:22:38.838Z,5.60
2017-08-31T20:25:06.351Z,5.50
2017-08-31T20:27:33.909Z,5.87
2017-08-31T20:30:01.432Z,6.10
2017-08-31T20:32:28.957Z,5.77
2017-08-31T20:34:56.472Z,5.80
2017-08-31T20:37:23.991Z,5.43
2017-08-31T20:39:51.524Z,6.53
2017-08-31T20:42:19.043Z,6.30
2017-08-31T20:44:46.551Z,6.37
2017-08-31T20:47:14.098Z,6.20
2017-08-31T20:49:41.598Z,6.13
2017-08-31T20:52:09.132Z,6.37
2017-08-31T20:54:36.668Z,6.30
2017-08-31T20:57:04.184Z,7.50
2017-08-31T20:59:31.704Z,8.10
2017-08-31T21:01:59.356Z,6.90
2017-08-31T21:04:26.876Z,6.47
2017-08-31T21:06:54.459Z,7.73
2017-08-31T21:09:22.013Z,7.40
2017-08-31T21:11:50.521Z,7.30
2017-08-31T21:14:18.032Z,7.13
2017-08-31T21:16:45.581Z,7.30
2017-08-31T21:19:13.096Z,8.03
2017-08-31T21:21:40.588Z,8.70
2017-08-31T21:24:08.448Z,6.83
2017-08-31T21:26:36.017Z,7.03
2017-08-31T21:29:03.535Z,7.23
2017-08-31T21:31:31.038Z,8.33
2017-08-31T21:33:58.564Z,7.80
2017-08-31T21:36:26.082Z,8.03
2017-08-31T21:38:53.775Z,7.80
2017-08-31T21:41:21.309Z,8.77
2017-08-31T21:43:48.824Z,8.43
2017-08-31T21:46:16.429Z,8.50
2017-08-31T21:48:43.989Z,9.80
2017-08-31T21:51:11.506Z,7.60
2017-08-31T21:53:39.031Z,9.40
2017-08-31T21:56:06.589Z,7.33
2017-08-31T21:58:34.133Z,8.60
2017-08-31T22:01:01.688Z,9.60
2017-08-31T22:03:29.243Z,7.93
2017-08-31T22:05:56.764Z,8.00
2017-08-31T22:08:24.288Z,7.97
2017-08-31T22:10:51.816Z,8.70
2017-08-31T22:13:20.091Z,7.00
2017-08-31T22:15:47.657Z,7.07
2017-08-31T22:18:15.191Z,8.33
2017-08-31T22:20:42.781Z,7.17
2017-08-31T22:23:10.307Z,7.23
2017-08-31T22:25:37.859Z,7.67
2017-08-31T22:28:05.379Z,7.60
2017-08-31T22:30:32.896Z,7.17
2017-08-31T22:33:00.413Z,7.50
2017-08-31T22:35:27.904Z,7.00
2017-08-31T22:37:55.412Z,7.17
2017-08-31T22:40:22.943Z,6.80
2017-08-31T22:42:50.451Z,6.10
2017-08-31T22:45:17.961Z,6.47
2017-08-31T22:47:45.490Z,5.03
2017-08-31T22:50:13.107Z,5.70
2017-08-31T22:52:40.627Z,7.83
2017-08-31T22:55:18.962Z,6.00
2017-08-31T22:57:58.344Z,7.73
2017-08-31T23:00:25.876Z,7.00
2017-08-31T23:02:53.365Z,7.73
2017-08-31T23:05:20.877Z,7.60
2017-08-31T23:07:48.421Z,6.93
2017-08-31T23:10:15.919Z,7.30
2017-08-31T23:12:43.445Z,6.77
2017-08-31T23:15:10.970Z,6.67
2017-08-31T23:17:38.494Z,6.97
2017-08-31T23:20:06.048Z,6.00
2017-08-31T23:22:33.575Z,6.70
2017-08-31T23:25:01.088Z,7.63
2017-08-31T23:27:28.607Z,7.30
2017-08-31T23:29:56.155Z,7.00
2017-08-31T23:32:23.666Z,7.13
2017-08-31T23:34:51.169Z,7.20
2017-08-31T23:37:18.708Z,5.90
2017-08-31T23:39:46.232Z,6.13
2017-08-31T23:42:13.755Z,6.80
2017-08-31T23:44:41.316Z,6.83
2017-08-31T23:47:08.894Z,8.00
2017-08-31T23:49:36.413Z,6.97
2017-08-31T23:52:03.953Z,7.60
2017-08-31T23:54:31.560Z,7.27
2017-08-31T23:56:59.123Z,6.50
2017-08-31T23:59:26.662Z,5.90
